Thompson, Michigan
Current Conditions -  °F | °C
As of 6:54 PM on Monday 20 Oct 2014 (Local Time) from KISQ Reporting Station
Overcast Overcast  
Wind Chill: 39°   Ceiling: 1100
Heat Index: 44°   Visibility: 10mi
Dew Point: 41°   Wind: 9mph
Humidity: 90%   Direction: 310°NW
Pressure: 29.91"   Gusts: NA
Location:  46.1571°N, 86.3397°W
Report Text: KISQ 202254Z AUTO 31008KT 10SM OVC011 07/05 A2991 RMK AO2 T00660051
Loading
Personal Weather Stations






























Interactive Weather Map
Tropical Storm Tracking
New forecast layout! Learn more

10-Day Weather Forecast

Advertisements
Track Severe Weather on mobile